sensor_id;sensor_type;location;lat;lon;timestamp;temperature;humidity
3628;DHT22;1830;49.000;12.074;2023-11-18T10:54:29;5.70;99.90
3628;DHT22;1830;49.000;12.074;2023-11-18T10:57:00;5.70;99.90
3628;DHT22;1830;49.000;12.074;2023-11-18T10:59:32;5.80;99.90
3628;DHT22;1830;49.000;12.074;2023-11-18T11:01:59;5.90;99.90
3628;DHT22;1830;49.000;12.074;2023-11-18T11:04:27;5.80;99.90
3628;DHT22;1830;49.000;12.074;2023-11-18T11:07:09;5.80;99.90
3628;DHT22;1830;49.000;12.074;2023-11-18T11:09:40;5.80;99.90
3628;DHT22;1830;49.000;12.074;2023-11-18T11:12:11;5.80;99.90
3628;DHT22;1830;49.000;12.074;2023-11-18T11:14:46;5.90;99.90
3628;DHT22;1830;49.000;12.074;2023-11-18T11:17:17;5.90;99.90
3628;DHT22;1830;49.000;12.074;2023-11-18T11:19:58;6.00;99.90
3628;DHT22;1830;49.000;12.074;2023-11-18T11:22:38;5.90;99.90
3628;DHT22;1830;49.000;12.074;2023-11-18T11:25:16;5.90;99.90
3628;DHT22;1830;49.000;12.074;2023-11-18T11:27:55;6.00;99.90
3628;DHT22;1830;49.000;12.074;2023-11-18T11:30:29;6.00;99.90
3628;DHT22;1830;49.000;12.074;2023-11-18T11:33:04;6.10;99.90
3628;DHT22;1830;49.000;12.074;2023-11-18T11:35:37;6.20;99.90
3628;DHT22;1830;49.000;12.074;2023-11-18T11:38:12;6.10;99.90
3628;DHT22;1830;49.000;12.074;2023-11-18T11:40:41;6.10;99.90
3628;DHT22;1830;49.000;12.074;2023-11-18T11:43:10;6.20;99.90
3628;DHT22;1830;49.000;12.074;2023-11-18T11:45:37;6.20;99.90
3628;DHT22;1830;49.000;12.074;2023-11-18T11:48:07;6.30;99.90
3628;DHT22;1830;49.000;12.074;2023-11-18T11:51:02;6.40;99.90
3628;DHT22;1830;49.000;12.074;2023-11-18T11:53:35;6.40;99.90
3628;DHT22;1830;49.000;12.074;2023-11-18T11:56:06;6.40;99.90
3628;DHT22;1830;49.000;12.074;2023-11-18T11:58:41;6.30;99.90
3628;DHT22;1830;49.000;12.074;2023-11-18T12:01:16;6.30;99.90
3628;DHT22;1830;49.000;12.074;2023-11-18T12:03:49;6.40;99.90
3628;DHT22;1830;49.000;12.074;2023-11-18T12:06:21;6.40;99.90
3628;DHT22;1830;49.000;12.074;2023-11-18T12:08:51;6.40;99.90
3628;DHT22;1830;49.000;12.074;2023-11-18T12:11:19;6.30;99.90
3628;DHT22;1830;49.000;12.074;2023-11-18T12:14:06;6.40;99.90
3628;DHT22;1830;49.000;12.074;2023-11-18T12:16:57;6.50;99.90
3628;DHT22;1830;49.000;12.074;2023-11-18T12:19:29;6.60;99.90
3628;DHT22;1830;49.000;12.074;2023-11-18T12:21:56;6.50;99.90
3628;DHT22;1830;49.000;12.074;2023-11-18T12:24:26;6.60;99.90
3628;DHT22;1830;49.000;12.074;2023-11-18T12:26:56;6.50;99.90
3628;DHT22;1830;49.000;12.074;2023-11-18T12:29:32;6.60;99.90
3628;DHT22;1830;49.000;12.074;2023-11-18T12:32:00;6.60;99.90
3628;DHT22;1830;49.000;12.074;2023-11-18T12:34:49;6.70;99.90
3628;DHT22;1830;49.000;12.074;2023-11-18T12:40:53;6.80;99.90
3628;DHT22;1830;49.000;12.074;2023-11-18T12:43:41;6.80;99.90
3628;DHT22;1830;49.000;12.074;2023-11-18T12:46:43;6.80;99.90
3628;DHT22;1830;49.000;12.074;2023-11-18T12:49:15;6.80;99.90
3628;DHT22;1830;49.000;12.074;2023-11-18T12:51:43;6.80;99.90
3628;DHT22;1830;49.000;12.074;2023-11-18T12:54:11;6.80;99.90
3628;DHT22;1830;49.000;12.074;2023-11-18T12:56:38;6.70;99.90
3628;DHT22;1830;49.000;12.074;2023-11-18T12:59:06;6.70;99.90
3628;DHT22;1830;49.000;12.074;2023-11-18T13:01:35;6.70;99.90
3628;DHT22;1830;49.000;12.074;2023-11-18T13:04:02;6.70;99.90
3628;DHT22;1830;49.000;12.074;2023-11-18T13:06:29;6.70;99.90
3628;DHT22;1830;49.000;12.074;2023-11-18T13:08:56;6.70;99.90
3628;DHT22;1830;49.000;12.074;2023-11-18T13:11:23;6.60;99.90
3628;DHT22;1830;49.000;12.074;2023-11-18T13:13:51;6.70;99.90
3628;DHT22;1830;49.000;12.074;2023-11-18T13:16:20;6.70;99.90
3628;DHT22;1830;49.000;12.074;2023-11-18T13:18:48;6.80;99.90
3628;DHT22;1830;49.000;12.074;2023-11-18T13:21:15;6.80;99.90
3628;DHT22;1830;49.000;12.074;2023-11-18T13:23:45;6.70;99.90
3628;DHT22;1830;49.000;12.074;2023-11-18T13:26:13;6.80;99.90
3628;DHT22;1830;49.000;12.074;2023-11-18T13:28:41;6.80;99.90
3628;DHT22;1830;49.000;12.074;2023-11-18T13:31:09;6.80;99.90
3628;DHT22;1830;49.000;12.074;2023-11-18T13:33:38;6.70;99.90
3628;DHT22;1830;49.000;12.074;2023-11-18T13:36:06;6.70;99.90
3628;DHT22;1830;49.000;12.074;2023-11-18T13:38:35;6.70;99.90
3628;DHT22;1830;49.000;12.074;2023-11-18T13:41:02;6.70;99.90
3628;DHT22;1830;49.000;12.074;2023-11-18T13:43:41;6.70;99.90
3628;DHT22;1830;49.000;12.074;2023-11-18T13:46:10;6.70;99.90
3628;DHT22;1830;49.000;12.074;2023-11-18T13:48:40;6.70;99.90
3628;DHT22;1830;49.000;12.074;2023-11-18T13:51:08;6.70;99.90
3628;DHT22;1830;49.000;12.074;2023-11-18T13:53:38;6.70;99.90
3628;DHT22;1830;49.000;12.074;2023-11-18T13:56:06;6.70;99.90
3628;DHT22;1830;49.000;12.074;2023-11-18T13:58:34;6.60;99.90
3628;DHT22;1830;49.000;12.074;2023-11-18T14:01:05;6.70;99.90
3628;DHT22;1830;49.000;12.074;2023-11-18T14:03:33;6.60;99.90
3628;DHT22;1830;49.000;12.074;2023-11-18T14:06:06;6.60;99.90
3628;DHT22;1830;49.000;12.074;2023-11-18T14:08:35;6.70;99.90
3628;DHT22;1830;49.000;12.074;2023-11-18T14:11:03;6.70;99.90
3628;DHT22;1830;49.000;12.074;2023-11-18T14:13:30;6.70;99.90
3628;DHT22;1830;49.000;12.074;2023-11-18T14:16:00;6.70;99.90
3628;DHT22;1830;49.000;12.074;2023-11-18T14:18:27;6.70;99.90
3628;DHT22;1830;49.000;12.074;2023-11-18T14:20:54;6.60;99.90
3628;DHT22;1830;49.000;12.074;2023-11-18T14:23:22;6.50;99.90
3628;DHT22;1830;49.000;12.074;2023-11-18T14:25:50;6.60;99.90
3628;DHT22;1830;49.000;12.074;2023-11-18T14:28:17;6.70;99.90
3628;DHT22;1830;49.000;12.074;2023-11-18T14:30:44;6.70;99.90
3628;DHT22;1830;49.000;12.074;2023-11-18T14:33:11;6.60;99.90
3628;DHT22;1830;49.000;12.074;2023-11-18T14:35:37;6.70;99.90
3628;DHT22;1830;49.000;12.074;2023-11-18T14:38:05;6.70;99.90
3628;DHT22;1830;49.000;12.074;2023-11-18T14:40:35;6.60;99.90
3628;DHT22;1830;49.000;12.074;2023-11-18T14:43:02;6.50;99.90
3628;DHT22;1830;49.000;12.074;2023-11-18T14:45:30;6.40;99.90
3628;DHT22;1830;49.000;12.074;2023-11-18T14:47:58;6.30;99.90
3628;DHT22;1830;49.000;12.074;2023-11-18T14:50:25;6.20;99.90
3628;DHT22;1830;49.000;12.074;2023-11-18T14:52:52;6.00;99.90
3628;DHT22;1830;49.000;12.074;2023-11-18T14:55:25;5.90;99.90
3628;DHT22;1830;49.000;12.074;2023-11-18T14:57:53;5.90;99.90
3628;DHT22;1830;49.000;12.074;2023-11-18T15:00:20;5.90;99.90
3628;DHT22;1830;49.000;12.074;2023-11-18T15:02:51;5.90;99.90
3628;DHT22;1830;49.000;12.074;2023-11-18T15:05:18;5.90;99.90
3628;DHT22;1830;49.000;12.074;2023-11-18T15:07:46;5.80;99.90
3628;DHT22;1830;49.000;12.074;2023-11-18T15:10:17;5.80;99.90
3628;DHT22;1830;49.000;12.074;2023-11-18T15:12:48;5.80;99.90
3628;DHT22;1830;49.000;12.074;2023-11-18T15:15:22;5.80;99.90
3628;DHT22;1830;49.000;12.074;2023-11-18T15:17:57;5.80;99.90
3628;DHT22;1830;49.000;12.074;2023-11-18T15:20:24;5.80;99.90
3628;DHT22;1830;49.000;12.074;2023-11-18T15:22:52;5.80;99.90
3628;DHT22;1830;49.000;12.074;2023-11-18T15:25:19;5.80;99.90
3628;DHT22;1830;49.000;12.074;2023-11-18T15:27:46;5.70;99.90
3628;DHT22;1830;49.000;12.074;2023-11-18T15:30:14;5.70;99.90
3628;DHT22;1830;49.000;12.074;2023-11-18T15:32:44;5.70;99.90
3628;DHT22;1830;49.000;12.074;2023-11-18T15:35:11;5.60;99.90
3628;DHT22;1830;49.000;12.074;2023-11-18T15:37:40;5.60;99.90
3628;DHT22;1830;49.000;12.074;2023-11-18T15:40:08;5.60;99.90
3628;DHT22;1830;49.000;12.074;2023-11-18T15:42:39;5.50;99.90
3628;DHT22;1830;49.000;12.074;2023-11-18T15:45:08;5.50;99.90
3628;DHT22;1830;49.000;12.074;2023-11-18T15:47:36;5.50;99.90
3628;DHT22;1830;49.000;12.074;2023-11-18T15:50:06;5.50;99.90
3628;DHT22;1830;49.000;12.074;2023-11-18T15:52:34;5.50;99.90
3628;DHT22;1830;49.000;12.074;2023-11-18T15:55:02;5.60;99.90
3628;DHT22;1830;49.000;12.074;2023-11-18T15:57:36;5.50;99.90
3628;DHT22;1830;49.000;12.074;2023-11-18T16:00:05;5.50;99.90
3628;DHT22;1830;49.000;12.074;2023-11-18T16:02:33;5.50;99.90
3628;DHT22;1830;49.000;12.074;2023-11-18T16:04:59;5.50;99.90
3628;DHT22;1830;49.000;12.074;2023-11-18T16:07:30;5.50;99.90
3628;DHT22;1830;49.000;12.074;2023-11-18T16:09:57;5.50;99.90
3628;DHT22;1830;49.000;12.074;2023-11-18T16:12:25;5.60;99.90
3628;DHT22;1830;49.000;12.074;2023-11-18T16:14:54;5.50;99.90
3628;DHT22;1830;49.000;12.074;2023-11-18T16:17:21;5.50;99.90
3628;DHT22;1830;49.000;12.074;2023-11-18T16:19:47;5.40;99.90
3628;DHT22;1830;49.000;12.074;2023-11-18T16:22:14;5.50;99.90
3628;DHT22;1830;49.000;12.074;2023-11-18T16:24:42;5.50;99.90
3628;DHT22;1830;49.000;12.074;2023-11-18T16:27:09;5.40;99.90
3628;DHT22;1830;49.000;12.074;2023-11-18T16:29:36;5.40;99.90
3628;DHT22;1830;49.000;12.074;2023-11-18T16:32:04;5.30;99.90
3628;DHT22;1830;49.000;12.074;2023-11-18T16:34:31;5.30;99.90
3628;DHT22;1830;49.000;12.074;2023-11-18T16:36:58;5.30;99.90
3628;DHT22;1830;49.000;12.074;2023-11-18T16:39:25;5.30;99.90
3628;DHT22;1830;49.000;12.074;2023-11-18T16:41:53;5.40;99.90
3628;DHT22;1830;49.000;12.074;2023-11-18T16:44:20;5.40;99.90
3628;DHT22;1830;49.000;12.074;2023-11-18T16:46:47;5.40;99.90
3628;DHT22;1830;49.000;12.074;2023-11-18T16:49:15;5.30;99.90
3628;DHT22;1830;49.000;12.074;2023-11-18T16:51:42;5.40;99.90
3628;DHT22;1830;49.000;12.074;2023-11-18T16:54:09;5.30;99.90
3628;DHT22;1830;49.000;12.074;2023-11-18T16:56:37;5.40;99.90
3628;DHT22;1830;49.000;12.074;2023-11-18T16:59:05;5.40;99.90
3628;DHT22;1830;49.000;12.074;2023-11-18T17:01:32;5.40;99.90
3628;DHT22;1830;49.000;12.074;2023-11-18T17:03:59;5.30;99.90
3628;DHT22;1830;49.000;12.074;2023-11-18T17:06:26;5.30;99.90
3628;DHT22;1830;49.000;12.074;2023-11-18T17:08:53;5.30;99.90
3628;DHT22;1830;49.000;12.074;2023-11-18T17:11:19;5.40;99.90
3628;DHT22;1830;49.000;12.074;2023-11-18T17:13:46;5.40;99.90
3628;DHT22;1830;49.000;12.074;2023-11-18T17:16:16;5.40;99.90
3628;DHT22;1830;49.000;12.074;2023-11-18T17:18:42;5.50;99.90
3628;DHT22;1830;49.000;12.074;2023-11-18T17:21:09;5.30;99.90
3628;DHT22;1830;49.000;12.074;2023-11-18T17:23:36;5.40;99.90
3628;DHT22;1830;49.000;12.074;2023-11-18T17:26:07;5.30;99.90
3628;DHT22;1830;49.000;12.074;2023-11-18T17:28:34;5.30;99.90
3628;DHT22;1830;49.000;12.074;2023-11-18T17:31:01;5.30;99.90
3628;DHT22;1830;49.000;12.074;2023-11-18T17:33:29;5.20;99.90
3628;DHT22;1830;49.000;12.074;2023-11-18T17:35:57;5.20;99.90
3628;DHT22;1830;49.000;12.074;2023-11-18T17:38:24;5.10;99.90
3628;DHT22;1830;49.000;12.074;2023-11-18T17:40:51;5.10;99.90
3628;DHT22;1830;49.000;12.074;2023-11-18T17:43:18;5.00;99.90
3628;DHT22;1830;49.000;12.074;2023-11-18T17:45:45;4.90;99.90
3628;DHT22;1830;49.000;12.074;2023-11-18T17:48:12;4.80;99.90
3628;DHT22;1830;49.000;12.074;2023-11-18T17:50:41;4.80;99.90
3628;DHT22;1830;49.000;12.074;2023-11-18T17:53:07;4.80;99.90
3628;DHT22;1830;49.000;12.074;2023-11-18T17:55:34;4.70;99.90
3628;DHT22;1830;49.000;12.074;2023-11-18T17:58:01;4.80;99.90
3628;DHT22;1830;49.000;12.074;2023-11-18T18:00:28;4.80;99.90
3628;DHT22;1830;49.000;12.074;2023-11-18T18:02:55;4.80;99.90
3628;DHT22;1830;49.000;12.074;2023-11-18T18:05:22;4.80;99.90
3628;DHT22;1830;49.000;12.074;2023-11-18T18:07:51;4.80;99.90
3628;DHT22;1830;49.000;12.074;2023-11-18T18:10:18;4.80;99.90
3628;DHT22;1830;49.000;12.074;2023-11-18T18:12:47;4.80;99.90
3628;DHT22;1830;49.000;12.074;2023-11-18T18:15:14;4.90;99.90
3628;DHT22;1830;49.000;12.074;2023-11-18T18:17:40;5.00;99.90
3628;DHT22;1830;49.000;12.074;2023-11-18T18:20:08;4.80;99.90
3628;DHT22;1830;49.000;12.074;2023-11-18T18:22:35;4.80;99.90
3628;DHT22;1830;49.000;12.074;2023-11-18T18:25:04;4.80;99.90
3628;DHT22;1830;49.000;12.074;2023-11-18T18:27:31;4.80;99.90
3628;DHT22;1830;49.000;12.074;2023-11-18T18:29:59;4.90;99.90
3628;DHT22;1830;49.000;12.074;2023-11-18T18:32:26;4.80;99.90
3628;DHT22;1830;49.000;12.074;2023-11-18T18:34:52;4.90;99.90
3628;DHT22;1830;49.000;12.074;2023-11-18T18:37:19;4.90;99.90
3628;DHT22;1830;49.000;12.074;2023-11-18T18:39:47;4.90;99.90
3628;DHT22;1830;49.000;12.074;2023-11-18T18:42:18;4.90;99.90
3628;DHT22;1830;49.000;12.074;2023-11-18T18:44:44;4.90;99.90
3628;DHT22;1830;49.000;12.074;2023-11-18T18:47:11;4.70;99.90
3628;DHT22;1830;49.000;12.074;2023-11-18T18:49:38;4.70;99.90
3628;DHT22;1830;49.000;12.074;2023-11-18T18:52:05;4.70;99.90
3628;DHT22;1830;49.000;12.074;2023-11-18T18:54:32;4.60;99.90
3628;DHT22;1830;49.000;12.074;2023-11-18T18:56:59;4.70;99.90
3628;DHT22;1830;49.000;12.074;2023-11-18T18:59:30;4.70;99.90
3628;DHT22;1830;49.000;12.074;2023-11-18T19:01:57;4.70;99.90
3628;DHT22;1830;49.000;12.074;2023-11-18T19:04:24;4.80;99.90
3628;DHT22;1830;49.000;12.074;2023-11-18T19:06:51;4.80;99.90
3628;DHT22;1830;49.000;12.074;2023-11-18T19:09:20;4.80;99.90
3628;DHT22;1830;49.000;12.074;2023-11-18T19:11:47;4.90;99.90
3628;DHT22;1830;49.000;12.074;2023-11-18T19:14:14;4.80;99.90
3628;DHT22;1830;49.000;12.074;2023-11-18T19:16:42;4.80;99.90
3628;DHT22;1830;49.000;12.074;2023-11-18T19:19:09;4.90;99.90
3628;DHT22;1830;49.000;12.074;2023-11-18T19:21:37;4.80;99.90
3628;DHT22;1830;49.000;12.074;2023-11-18T19:24:04;4.60;99.90
3628;DHT22;1830;49.000;12.074;2023-11-18T19:26:31;4.70;99.90
3628;DHT22;1830;49.000;12.074;2023-11-18T19:29:01;4.70;99.90
3628;DHT22;1830;49.000;12.074;2023-11-18T19:31:28;4.70;99.90
3628;DHT22;1830;49.000;12.074;2023-11-18T19:33:56;4.60;99.90
3628;DHT22;1830;49.000;12.074;2023-11-18T19:36:23;4.60;99.90
3628;DHT22;1830;49.000;12.074;2023-11-18T19:38:50;4.50;99.90
3628;DHT22;1830;49.000;12.074;2023-11-18T19:41:17;4.60;99.90
3628;DHT22;1830;49.000;12.074;2023-11-18T19:43:44;4.60;99.90
3628;DHT22;1830;49.000;12.074;2023-11-18T19:46:11;4.60;99.90
3628;DHT22;1830;49.000;12.074;2023-11-18T19:48:38;4.70;99.90
3628;DHT22;1830;49.000;12.074;2023-11-18T19:51:08;4.60;99.90
3628;DHT22;1830;49.000;12.074;2023-11-18T19:53:36;4.60;99.90
3628;DHT22;1830;49.000;12.074;2023-11-18T19:56:03;4.60;99.90
3628;DHT22;1830;49.000;12.074;2023-11-18T19:58:30;4.60;99.90
3628;DHT22;1830;49.000;12.074;2023-11-18T20:00:57;4.60;99.90
3628;DHT22;1830;49.000;12.074;2023-11-18T20:03:24;4.60;99.90
3628;DHT22;1830;49.000;12.074;2023-11-18T20:05:51;4.60;99.90
3628;DHT22;1830;49.000;12.074;2023-11-18T20:08:20;4.60;99.90
3628;DHT22;1830;49.000;12.074;2023-11-18T20:10:47;4.70;99.90
3628;DHT22;1830;49.000;12.074;2023-11-18T20:13:13;4.70;99.90
3628;DHT22;1830;49.000;12.074;2023-11-18T20:15:40;4.70;99.90
3628;DHT22;1830;49.000;12.074;2023-11-18T20:18:07;4.70;99.90
3628;DHT22;1830;49.000;12.074;2023-11-18T20:20:35;4.70;99.90
3628;DHT22;1830;49.000;12.074;2023-11-18T20:23:02;4.80;99.90
3628;DHT22;1830;49.000;12.074;2023-11-18T20:25:30;4.80;99.90
3628;DHT22;1830;49.000;12.074;2023-11-18T20:27:57;4.80;99.90
3628;DHT22;1830;49.000;12.074;2023-11-18T20:30:24;4.80;99.90
3628;DHT22;1830;49.000;12.074;2023-11-18T20:32:51;4.80;99.90
3628;DHT22;1830;49.000;12.074;2023-11-18T20:35:18;4.90;99.90
3628;DHT22;1830;49.000;12.074;2023-11-18T20:37:44;4.80;99.90
3628;DHT22;1830;49.000;12.074;2023-11-18T20:40:13;4.80;99.90
3628;DHT22;1830;49.000;12.074;2023-11-18T20:42:47;4.80;99.90
3628;DHT22;1830;49.000;12.074;2023-11-18T20:45:14;4.90;99.90
3628;DHT22;1830;49.000;12.074;2023-11-18T20:47:43;4.80;99.90
3628;DHT22;1830;49.000;12.074;2023-11-18T20:50:10;4.90;99.90
3628;DHT22;1830;49.000;12.074;2023-11-18T20:52:38;4.90;99.90
3628;DHT22;1830;49.000;12.074;2023-11-18T20:55:06;4.90;99.90
3628;DHT22;1830;49.000;12.074;2023-11-18T20:57:34;5.00;99.90
3628;DHT22;1830;49.000;12.074;2023-11-18T21:00:03;4.90;99.90
3628;DHT22;1830;49.000;12.074;2023-11-18T21:02:32;4.90;99.90
3628;DHT22;1830;49.000;12.074;2023-11-18T21:04:59;4.90;99.90
3628;DHT22;1830;49.000;12.074;2023-11-18T21:09:53;4.80;99.90
3628;DHT22;1830;49.000;12.074;2023-11-18T21:12:22;4.80;99.90
3628;DHT22;1830;49.000;12.074;2023-11-18T21:14:49;4.80;99.90
3628;DHT22;1830;49.000;12.074;2023-11-18T21:17:17;4.80;99.90
3628;DHT22;1830;49.000;12.074;2023-11-18T21:19:45;4.70;99.90
3628;DHT22;1830;49.000;12.074;2023-11-18T21:22:12;4.70;99.90
3628;DHT22;1830;49.000;12.074;2023-11-18T21:24:43;4.80;99.90
3628;DHT22;1830;49.000;12.074;2023-11-18T21:27:10;4.80;99.90
3628;DHT22;1830;49.000;12.074;2023-11-18T21:29:36;4.80;99.90
3628;DHT22;1830;49.000;12.074;2023-11-18T21:32:04;4.80;99.90
3628;DHT22;1830;49.000;12.074;2023-11-18T21:34:32;4.90;99.90
3628;DHT22;1830;49.000;12.074;2023-11-18T21:36:59;4.90;99.90
3628;DHT22;1830;49.000;12.074;2023-11-18T21:39:25;5.00;99.90
3628;DHT22;1830;49.000;12.074;2023-11-18T21:41:52;4.90;99.90
3628;DHT22;1830;49.000;12.074;2023-11-18T21:44:19;5.00;99.90
3628;DHT22;1830;49.000;12.074;2023-11-18T21:46:46;4.90;99.90
3628;DHT22;1830;49.000;12.074;2023-11-18T21:49:12;5.10;99.90
3628;DHT22;1830;49.000;12.074;2023-11-18T21:51:40;5.10;99.90
3628;DHT22;1830;49.000;12.074;2023-11-18T21:54:07;5.10;99.90
3628;DHT22;1830;49.000;12.074;2023-11-18T21:56:35;5.20;99.90
3628;DHT22;1830;49.000;12.074;2023-11-18T21:59:02;5.20;99.90
3628;DHT22;1830;49.000;12.074;2023-11-18T22:01:29;5.20;99.90
3628;DHT22;1830;49.000;12.074;2023-11-18T22:03:56;5.20;99.90
3628;DHT22;1830;49.000;12.074;2023-11-18T22:06:23;5.20;99.90
3628;DHT22;1830;49.000;12.074;2023-11-18T22:08:51;5.30;99.90
3628;DHT22;1830;49.000;12.074;2023-11-18T22:11:18;5.30;99.90
3628;DHT22;1830;49.000;12.074;2023-11-18T22:13:45;5.30;99.90
3628;DHT22;1830;49.000;12.074;2023-11-18T22:16:14;5.20;99.90
3628;DHT22;1830;49.000;12.074;2023-11-18T22:18:40;5.20;99.90
3628;DHT22;1830;49.000;12.074;2023-11-18T22:21:07;5.10;99.90
3628;DHT22;1830;49.000;12.074;2023-11-18T22:23:34;5.00;99.90
3628;DHT22;1830;49.000;12.074;2023-11-18T22:26:01;5.00;99.90
3628;DHT22;1830;49.000;12.074;2023-11-18T22:28:28;4.90;99.90
3628;DHT22;1830;49.000;12.074;2023-11-18T22:30:57;4.90;99.90
3628;DHT22;1830;49.000;12.074;2023-11-18T22:33:24;4.90;99.90
3628;DHT22;1830;49.000;12.074;2023-11-18T22:35:51;5.00;99.90
3628;DHT22;1830;49.000;12.074;2023-11-18T22:38:19;5.00;99.90
3628;DHT22;1830;49.000;12.074;2023-11-18T22:40:47;5.00;99.90
3628;DHT22;1830;49.000;12.074;2023-11-18T22:43:15;5.00;99.90
3628;DHT22;1830;49.000;12.074;2023-11-18T22:45:42;4.90;99.90
3628;DHT22;1830;49.000;12.074;2023-11-18T22:48:11;4.90;99.90
3628;DHT22;1830;49.000;12.074;2023-11-18T22:50:38;4.90;99.90
3628;DHT22;1830;49.000;12.074;2023-11-18T22:53:07;4.80;99.90
3628;DHT22;1830;49.000;12.074;2023-11-18T22:55:36;4.80;99.90
3628;DHT22;1830;49.000;12.074;2023-11-18T22:58:03;4.80;99.90
3628;DHT22;1830;49.000;12.074;2023-11-18T23:00:31;4.90;99.90
3628;DHT22;1830;49.000;12.074;2023-11-18T23:03:08;4.80;99.90
3628;DHT22;1830;49.000;12.074;2023-11-18T23:05:36;4.90;99.90
3628;DHT22;1830;49.000;12.074;2023-11-18T23:08:05;4.90;99.90
3628;DHT22;1830;49.000;12.074;2023-11-18T23:10:34;4.80;99.90
3628;DHT22;1830;49.000;12.074;2023-11-18T23:13:02;4.80;99.90
3628;DHT22;1830;49.000;12.074;2023-11-18T23:15:29;4.70;99.90
3628;DHT22;1830;49.000;12.074;2023-11-18T23:17:57;4.70;99.90
3628;DHT22;1830;49.000;12.074;2023-11-18T23:20:26;4.70;99.90
3628;DHT22;1830;49.000;12.074;2023-11-18T23:22:53;4.80;99.90
3628;DHT22;1830;49.000;12.074;2023-11-18T23:25:19;4.80;99.90
3628;DHT22;1830;49.000;12.074;2023-11-18T23:27:48;4.80;99.90
3628;DHT22;1830;49.000;12.074;2023-11-18T23:30:15;4.80;99.90
3628;DHT22;1830;49.000;12.074;2023-11-18T23:32:47;4.80;99.90
3628;DHT22;1830;49.000;12.074;2023-11-18T23:35:15;4.80;99.90
3628;DHT22;1830;49.000;12.074;2023-11-18T23:37:43;4.70;99.90
3628;DHT22;1830;49.000;12.074;2023-11-18T23:40:11;4.60;99.90
3628;DHT22;1830;49.000;12.074;2023-11-18T23:42:39;4.60;99.90
3628;DHT22;1830;49.000;12.074;2023-11-18T23:45:08;4.50;99.90
3628;DHT22;1830;49.000;12.074;2023-11-18T23:47:36;4.60;99.90
3628;DHT22;1830;49.000;12.074;2023-11-18T23:50:04;4.60;99.90
3628;DHT22;1830;49.000;12.074;2023-11-18T23:52:33;4.70;99.90
3628;DHT22;1830;49.000;12.074;2023-11-18T23:55:00;4.70;99.90
3628;DHT22;1830;49.000;12.074;2023-11-18T23:57:27;4.70;99.90
3628;DHT22;1830;49.000;12.074;2023-11-18T23:59:54;4.80;99.90
